Time;durP1;ratioP1;P1;durP2;ratioP2;P2;SDS_P1;SDS_P2;PMS_P1;PMS_P2;Temp;Humidity;BMP_temperature;BMP_pressure;BME280_temperature;BME280_humidity;BME280_pressure;Samples;Min_cycle;Max_cycle;Signal;HPM_P1;HPM_P2
2023/09/10 04:06:27;;;;;;;0.30;0.30;;;17.60;99.90;;;;;;5155510;23;20710;-64
2023/09/10 04:08:52;;;;;;;0.30;0.20;;;17.60;99.90;;;;;;4956678;29;20466;-64
2023/09/10 04:11:18;;;;;;;0.40;0.40;;;17.70;99.90;;;;;;4956807;29;20172;-64
2023/09/10 04:13:44;;;;;;;0.30;0.20;;;17.80;99.90;;;;;;4956774;29;20211;-64
2023/09/10 04:16:09;;;;;;;0.30;0.30;;;17.80;99.90;;;;;;4956775;28;20189;-64
2023/09/10 04:18:35;;;;;;;0.30;0.20;;;17.70;99.90;;;;;;4956757;29;20258;-63
2023/09/10 04:21:04;;;;;;;0.30;0.30;;;17.60;99.90;;;;;;4956775;29;20259;-64
2023/09/10 04:23:30;;;;;;;0.93;0.93;;;17.60;99.90;;;;;;4939439;29;20423;-65
2023/09/10 04:25:55;;;;;;;0.30;0.30;;;17.60;99.90;;;;;;4956180;28;21028;-64
2023/09/10 04:28:21;;;;;;;0.30;0.30;;;17.60;99.90;;;;;;4956484;29;20437;-64
2023/09/10 04:30:47;;;;;;;0.30;0.20;;;17.50;99.90;;;;;;4956355;29;20236;-64
2023/09/10 04:33:16;;;;;;;0.37;0.37;;;17.50;99.90;;;;;;4939150;29;20521;-64
2023/09/10 04:35:50;;;;;;;0.30;0.20;;;17.40;99.90;;;;;;4954707;28;20261;-64
2023/09/10 04:38:16;;;;;;;0.30;0.20;;;17.40;99.90;;;;;;4939006;29;20387;-64
2023/09/10 04:40:41;;;;;;;0.37;0.30;;;17.40;99.90;;;;;;4956141;28;20970;-64
2023/09/10 04:43:07;;;;;;;0.30;0.20;;;17.30;99.90;;;;;;4956021;29;20644;-64
2023/09/10 04:45:33;;;;;;;0.33;0.33;;;17.30;99.90;;;;;;4955866;28;20202;-64
2023/09/10 04:47:59;;;;;;;0.40;0.40;;;17.30;99.90;;;;;;4956214;28;20489;-63
2023/09/10 04:50:25;;;;;;;0.63;0.40;;;17.20;99.90;;;;;;4943854;29;20203;-64
2023/09/10 04:52:52;;;;;;;0.40;0.40;;;17.30;99.90;;;;;;4955287;29;20217;-63
2023/09/10 04:55:18;;;;;;;0.40;0.40;;;17.40;99.90;;;;;;4951605;28;20210;-64
2023/09/10 04:57:43;;;;;;;0.30;0.30;;;17.50;99.90;;;;;;4955917;29;20826;-64
2023/09/10 05:00:10;;;;;;;0.30;0.30;;;17.50;99.90;;;;;;4956055;29;20179;-64
2023/09/10 05:02:35;;;;;;;0.30;0.30;;;17.50;99.90;;;;;;4955835;29;20177;-64
2023/09/10 05:05:01;;;;;;;0.30;0.20;;;17.40;99.90;;;;;;4955386;28;20970;-64
2023/09/10 05:07:26;;;;;;;0.30;0.20;;;17.30;99.90;;;;;;4949833;29;20200;-64
2023/09/10 05:09:54;;;;;;;0.97;0.63;;;17.30;99.90;;;;;;4936469;29;20210;-64
2023/09/10 05:12:20;;;;;;;0.40;0.40;;;17.30;99.90;;;;;;4936452;29;20171;-63
2023/09/10 05:14:45;;;;;;;0.30;0.30;;;17.30;99.90;;;;;;4939494;29;20444;-63
2023/09/10 05:17:11;;;;;;;0.30;0.30;;;17.30;99.90;;;;;;4936427;29;20249;-63
2023/09/10 05:19:36;;;;;;;0.40;0.40;;;17.30;99.90;;;;;;4936349;29;20181;-63
2023/09/10 05:22:02;;;;;;;0.30;0.30;;;17.40;99.90;;;;;;4936192;29;20184;-63
2023/09/10 05:24:27;;;;;;;0.30;0.30;;;17.50;99.90;;;;;;4936080;29;20195;-63
2023/09/10 05:26:53;;;;;;;0.30;0.20;;;17.50;99.90;;;;;;4923256;29;20178;-64
2023/09/10 05:29:19;;;;;;;0.30;0.30;;;17.50;99.90;;;;;;4938230;29;20195;-63
2023/09/10 05:31:44;;;;;;;0.53;0.53;;;17.60;99.90;;;;;;4933083;29;20178;-63
2023/09/10 05:34:10;;;;;;;0.30;0.20;;;17.70;99.90;;;;;;4935826;29;20167;-63
2023/09/10 05:36:35;;;;;;;0.83;0.77;;;17.90;99.90;;;;;;4936009;29;20277;-65
2023/09/10 05:39:01;;;;;;;0.30;0.30;;;18.00;99.90;;;;;;4919162;29;20176;-63
2023/09/10 05:41:27;;;;;;;0.30;0.30;;;18.00;99.90;;;;;;4936240;29;20185;-63
2023/09/10 05:43:52;;;;;;;0.30;0.30;;;18.00;99.90;;;;;;4940662;29;20436;-64
2023/09/10 05:46:18;;;;;;;0.30;0.20;;;18.00;99.90;;;;;;4955130;28;20225;-64
2023/09/10 05:48:44;;;;;;;0.30;0.20;;;18.10;99.90;;;;;;4955030;29;20196;-63
2023/09/10 05:51:09;;;;;;;0.40;0.40;;;18.20;99.90;;;;;;4955452;29;20183;-64
2023/09/10 05:53:35;;;;;;;0.43;0.43;;;18.20;99.90;;;;;;4956042;28;20173;-65
2023/09/10 05:56:04;;;;;;;0.30;0.30;;;18.20;99.90;;;;;;4959134;28;20246;-64
2023/09/10 05:58:29;;;;;;;0.40;0.40;;;18.20;99.90;;;;;;4954889;29;20179;-64
2023/09/10 06:00:55;;;;;;;0.30;0.27;;;18.20;99.90;;;;;;4940168;29;20420;-64
2023/09/10 06:03:20;;;;;;;0.30;0.30;;;18.30;99.90;;;;;;4940019;29;20184;-65
2023/09/10 06:05:48;;;;;;;0.30;0.20;;;18.30;99.90;;;;;;4956077;28;20240;-65
2023/09/10 06:08:13;;;;;;;0.30;0.30;;;18.40;99.90;;;;;;4959033;28;20220;-64
2023/09/10 06:10:39;;;;;;;0.40;0.40;;;18.50;99.90;;;;;;4946472;28;20464;-64
2023/09/10 06:13:04;;;;;;;0.30;0.30;;;18.60;99.90;;;;;;4939707;29;20211;-65
2023/09/10 06:15:30;;;;;;;0.30;0.27;;;18.80;99.90;;;;;;4939528;29;20599;-64
2023/09/10 06:17:55;;;;;;;0.30;0.30;;;18.90;99.90;;;;;;4941243;29;20178;-65
2023/09/10 06:20:21;;;;;;;0.30;0.20;;;19.00;99.90;;;;;;4958826;29;20281;-64
2023/09/10 06:22:47;;;;;;;0.40;0.40;;;19.10;99.90;;;;;;4958789;29;20185;-65
2023/09/10 06:25:12;;;;;;;0.40;0.40;;;19.30;99.90;;;;;;4958476;29;20252;-65
2023/09/10 06:27:38;;;;;;;0.30;0.30;;;19.40;99.90;;;;;;4958615;29;20661;-64
2023/09/10 06:30:04;;;;;;;0.30;0.30;;;19.60;99.90;;;;;;4958738;29;20604;-67
2023/09/10 06:32:30;;;;;;;0.30;0.30;;;19.70;99.90;;;;;;4958304;29;20173;-65
2023/09/10 06:34:55;;;;;;;1.10;1.07;;;19.80;99.90;;;;;;4940849;29;20442;-68
2023/09/10 06:37:21;;;;;;;0.30;0.30;;;20.00;99.90;;;;;;4963215;28;20187;-64
2023/09/10 06:39:46;;;;;;;0.30;0.20;;;20.10;99.90;;;;;;4941858;29;20284;-66
2023/09/10 06:42:13;;;;;;;0.50;0.50;;;20.10;99.90;;;;;;4958490;29;20263;-67
2023/09/10 06:44:43;;;;;;;0.40;0.40;;;20.20;99.90;;;;;;4956933;29;20208;-67
2023/09/10 06:47:09;;;;;;;1.47;0.63;;;20.20;99.90;;;;;;4958074;29;20978;-67
2023/09/10 06:49:35;;;;;;;0.47;0.47;;;20.40;99.90;;;;;;4957710;29;20496;-65
2023/09/10 06:52:01;;;;;;;0.30;0.30;;;20.50;99.90;;;;;;4958158;28;20466;-71
2023/09/10 06:54:26;;;;;;;0.40;0.40;;;20.60;99.90;;;;;;4957660;29;20191;-68
2023/09/10 06:56:52;;;;;;;0.30;0.30;;;20.70;99.90;;;;;;4957798;28;20181;-70
2023/09/10 06:59:17;;;;;;;0.30;0.30;;;20.90;99.90;;;;;;4958029;29;20188;-69
2023/09/10 07:01:44;;;;;;;0.30;0.30;;;21.10;99.90;;;;;;4957947;28;20181;-72
2023/09/10 07:04:17;;;;;;;0.40;0.40;;;21.20;99.90;;;;;;4956685;28;20183;-66
2023/09/10 07:06:45;;;;;;;0.40;0.40;;;21.40;99.90;;;;;;4954293;28;20496;-69
2023/09/10 07:09:11;;;;;;;0.40;0.40;;;21.50;99.90;;;;;;4957767;28;20456;-67
2023/09/10 07:11:37;;;;;;;0.30;0.30;;;21.60;99.90;;;;;;4957949;28;20435;-73
2023/09/10 07:14:02;;;;;;;0.40;0.40;;;21.70;99.90;;;;;;4957496;28;20389;-69
2023/09/10 07:16:28;;;;;;;0.30;0.30;;;22.00;99.90;;;;;;4940346;29;20440;-71
2023/09/10 07:18:54;;;;;;;0.60;0.60;;;22.20;99.90;;;;;;4957252;28;20176;-69
2023/09/10 07:21:19;;;;;;;0.30;0.20;;;22.50;99.90;;;;;;4957461;29;20181;-71
2023/09/10 07:23:45;;;;;;;0.30;0.30;;;22.90;99.90;;;;;;4957223;29;20220;-67
2023/09/10 07:26:10;;;;;;;0.30;0.20;;;23.00;99.90;;;;;;4957300;29;20190;-68
2023/09/10 07:28:36;;;;;;;0.30;0.30;;;23.10;99.90;;;;;;4957010;29;20588;-70
2023/09/10 07:31:02;;;;;;;0.50;0.40;;;23.20;99.90;;;;;;4957348;29;20288;-68
2023/09/10 07:33:28;;;;;;;0.30;0.30;;;23.20;99.90;;;;;;4957125;28;20199;-69
2023/09/10 07:35:54;;;;;;;0.60;0.60;;;23.20;99.90;;;;;;4956709;29;20468;-69
2023/09/10 07:38:20;;;;;;;0.40;0.40;;;23.30;99.90;;;;;;4957401;29;20383;-69
2023/09/10 07:40:46;;;;;;;0.50;0.43;;;23.40;99.90;;;;;;4957184;29;20416;-68
2023/09/10 07:43:11;;;;;;;0.30;0.20;;;23.60;99.90;;;;;;4939945;29;20440;-69
2023/09/10 07:45:39;;;;;;;0.70;0.53;;;23.70;99.90;;;;;;4956636;28;20279;-69
2023/09/10 07:48:05;;;;;;;0.30;0.30;;;23.70;99.90;;;;;;4956763;29;20184;-69
2023/09/10 07:50:31;;;;;;;0.67;0.60;;;23.90;99.90;;;;;;4957101;29;20512;-69
2023/09/10 07:52:57;;;;;;;0.30;0.30;;;24.30;99.90;;;;;;4957097;28;20338;-69
2023/09/10 07:55:22;;;;;;;0.30;0.20;;;25.10;99.90;;;;;;4955966;28;20422;-69
2023/09/10 07:57:49;;;;;;;0.30;0.30;;;26.30;99.90;;;;;;4957195;29;20600;-70
2023/09/10 08:00:16;;;;;;;1.07;1.07;;;27.40;99.90;;;;;;4956805;29;20175;-66
2023/09/10 08:02:41;;;;;;;0.73;0.73;;;28.50;99.90;;;;;;4956078;29;20403;-66
2023/09/10 08:05:07;;;;;;;0.80;0.80;;;29.50;99.90;;;;;;4956205;29;20448;-68
2023/09/10 08:07:33;;;;;;;0.80;0.80;;;30.40;98.60;;;;;;4956773;29;20189;-68
2023/09/10 08:09:59;;;;;;;0.57;0.57;;;31.40;96.20;;;;;;4956880;29;20457;-69
2023/09/10 08:12:24;;;;;;;0.80;0.80;;;32.10;94.80;;;;;;4956670;29;20165;-69
2023/09/10 08:14:50;;;;;;;0.70;0.70;;;32.80;94.30;;;;;;4956001;28;20189;-69
2023/09/10 08:17:15;;;;;;;0.70;0.70;;;33.50;92.20;;;;;;4955684;28;20547;-69
2023/09/10 08:19:41;;;;;;;0.60;0.60;;;34.00;91.50;;;;;;4956511;29;20176;-68
2023/09/10 08:22:07;;;;;;;6.53;2.30;;;34.70;90.40;;;;;;4955476;29;20185;-69
2023/09/10 08:24:32;;;;;;;0.97;0.97;;;35.00;86.40;;;;;;4955793;29;20537;-69
2023/09/10 08:27:02;;;;;;;1.37;1.27;;;35.20;88.00;;;;;;4956363;28;20176;-70
2023/09/10 08:29:28;;;;;;;0.63;0.63;;;35.70;86.30;;;;;;4939110;29;20204;-69
2023/09/10 08:31:54;;;;;;;1.27;1.17;;;36.30;83.80;;;;;;4955908;28;20937;-70
2023/09/10 08:34:19;;;;;;;1.07;1.07;;;36.60;81.20;;;;;;4955754;29;20263;-70
2023/09/10 08:36:45;;;;;;;0.90;0.90;;;36.50;81.70;;;;;;4956320;29;20177;-68
2023/09/10 08:39:10;;;;;;;0.80;0.70;;;36.50;79.80;;;;;;4955802;29;20187;-68
2023/09/10 08:42:03;;;;;;;0.90;0.90;;;36.50;79.80;;;;;;4956296;29;20364;-68
2023/09/10 08:44:29;;;;;;;0.50;0.50;;;36.70;78.30;;;;;;4955912;29;20215;-70
2023/09/10 08:46:57;;;;;;;0.90;0.90;;;36.80;77.80;;;;;;4955865;29;20421;-69
2023/09/10 08:49:26;;;;;;;1.00;1.00;;;36.90;78.60;;;;;;4956228;29;20464;-69
2023/09/10 08:51:52;;;;;;;1.07;1.07;;;37.10;77.00;;;;;;4955713;29;20421;-70
2023/09/10 08:54:18;;;;;;;1.00;0.97;;;37.20;76.90;;;;;;4955224;29;20412;-66
2023/09/10 08:56:44;;;;;;;0.87;0.87;;;37.50;76.60;;;;;;4956096;29;20910;-65
2023/09/10 08:59:11;;;;;;;1.00;1.00;;;37.60;75.60;;;;;;4955761;28;20176;-70
2023/09/10 09:01:36;;;;;;;0.90;0.90;;;37.90;75.30;;;;;;4955722;28;20204;-66
2023/09/10 09:04:03;;;;;;;0.80;0.80;;;38.20;74.10;;;;;;4955223;29;20461;-68
2023/09/10 09:06:31;;;;;;;0.93;0.93;;;38.40;73.10;;;;;;4955366;29;20263;-67
2023/09/10 09:08:59;;;;;;;1.03;1.03;;;38.50;71.50;;;;;;4955551;28;20452;-68
2023/09/10 09:11:26;;;;;;;0.90;0.90;;;38.80;71.60;;;;;;4955607;29;20911;-68
2023/09/10 09:13:52;;;;;;;1.00;1.00;;;39.00;71.70;;;;;;4955164;29;21357;-68
2023/09/10 09:16:20;;;;;;;0.73;0.73;;;39.10;71.80;;;;;;4955541;29;20425;-68
2023/09/10 09:18:47;;;;;;;1.00;1.00;;;39.40;69.90;;;;;;4936552;29;20425;-68
2023/09/10 09:21:21;;;;;;;1.73;1.63;;;39.80;68.80;;;;;;4942242;29;20468;-67
2023/09/10 09:23:53;;;;;;;0.83;0.83;;;40.10;67.00;;;;;;4955083;29;20902;-69
2023/09/10 09:26:21;;;;;;;0.93;0.93;;;40.30;65.90;;;;;;4938340;29;20432;-70
2023/09/10 09:28:47;;;;;;;0.80;0.80;;;40.60;65.40;;;;;;4955336;28;20503;-67
2023/09/10 09:31:13;;;;;;;1.70;1.50;;;40.50;64.90;;;;;;4954977;29;20448;-70
2023/09/10 09:33:39;;;;;;;1.10;1.10;;;40.40;65.40;;;;;;4938099;29;20564;-68
2023/09/10 09:36:09;;;;;;;0.87;0.87;;;40.50;65.50;;;;;;4955171;29;20440;-68
2023/09/10 09:38:40;;;;;;;1.20;1.20;;;40.60;66.40;;;;;;4955399;29;20181;-68
2023/09/10 09:41:06;;;;;;;1.93;1.83;;;40.90;66.00;;;;;;4955458;29;20459;-69
2023/09/10 09:43:35;;;;;;;1.77;1.67;;;41.10;63.60;;;;;;4955233;29;20965;-70
2023/09/10 09:46:01;;;;;;;1.20;1.20;;;40.90;63.20;;;;;;4954696;28;20193;-72
2023/09/10 09:48:27;;;;;;;1.40;1.40;;;40.60;62.60;;;;;;4954730;29;20420;-67
2023/09/10 09:50:53;;;;;;;1.77;1.67;;;40.20;64.90;;;;;;4955218;29;20887;-68
2023/09/10 09:53:22;;;;;;;1.07;1.07;;;39.90;63.40;;;;;;4955209;28;20220;-69
2023/09/10 09:55:48;;;;;;;1.73;1.70;;;39.60;63.90;;;;;;4954794;29;20445;-65
2023/09/10 09:58:17;;;;;;;1.07;1.07;;;39.50;65.60;;;;;;4955271;29;20415;-75
2023/09/10 10:00:44;;;;;;;0.90;0.90;;;39.70;65.90;;;;;;4954809;29;20293;-74
2023/09/10 10:03:10;;;;;;;1.83;1.73;;;39.70;63.30;;;;;;4955071;28;20794;-67
2023/09/10 10:05:37;;;;;;;1.07;1.07;;;39.60;64.40;;;;;;4954652;29;20425;-72
2023/09/10 10:08:04;;;;;;;1.20;1.10;;;39.50;64.90;;;;;;4922047;29;20460;-67
2023/09/10 10:10:29;;;;;;;1.00;1.00;;;39.50;65.50;;;;;;4954856;29;20831;-72
2023/09/10 10:12:57;;;;;;;1.13;1.13;;;39.40;64.50;;;;;;4955072;29;20468;-74
2023/09/10 10:15:24;;;;;;;1.30;1.20;;;39.40;63.80;;;;;;4953926;29;20454;-71
2023/09/10 10:17:52;;;;;;;1.10;1.10;;;39.60;61.00;;;;;;4955083;29;20412;-68
2023/09/10 10:20:18;;;;;;;1.40;1.33;;;39.50;61.90;;;;;;4955085;29;20456;-67
2023/09/10 10:22:45;;;;;;;0.93;0.93;;;39.40;61.80;;;;;;4954885;29;20475;-69
2023/09/10 10:25:12;;;;;;;1.30;1.23;;;39.10;60.90;;;;;;4954635;29;20930;-71
2023/09/10 10:27:42;;;;;;;1.20;1.20;;;38.80;61.90;;;;;;4954702;29;20429;-71
2023/09/10 10:30:08;;;;;;;1.10;1.10;;;38.60;59.80;;;;;;4954441;29;20462;-73
2023/09/10 10:32:43;;;;;;;1.23;1.23;;;38.50;60.40;;;;;;4954857;29;20439;-67
2023/09/10 10:35:10;;;;;;;0.90;0.90;;;38.10;60.40;;;;;;4954391;28;20562;-73
2023/09/10 10:37:52;;;;;;;1.03;1.03;;;37.90;62.00;;;;;;4954940;28;20472;-70
2023/09/10 10:40:27;;;;;;;1.50;1.40;;;37.80;61.10;;;;;;4956584;28;20555;-66
2023/09/10 10:42:56;;;;;;;1.17;0.90;;;37.70;61.80;;;;;;4941099;29;20440;-64
2023/09/10 10:45:24;;;;;;;1.23;1.07;;;37.60;63.70;;;;;;4958123;29;20466;-65
2023/09/10 10:47:52;;;;;;;1.07;1.07;;;37.50;64.40;;;;;;4957786;29;20428;-72
2023/09/10 10:50:38;;;;;;;1.17;1.17;;;37.40;64.40;;;;;;4958040;28;20527;-66
2023/09/10 10:53:10;;;;;;;1.50;1.40;;;37.40;63.60;;;;;;4958260;29;20424;-67
2023/09/10 10:55:38;;;;;;;1.37;1.27;;;37.50;65.50;;;;;;4957490;29;20471;-67
2023/09/10 10:58:04;;;;;;;1.90;1.80;;;37.50;65.60;;;;;;4958220;29;20753;-70
2023/09/10 11:00:32;;;;;;;1.17;1.10;;;37.60;65.20;;;;;;4957917;28;20498;-69
2023/09/10 11:03:10;;;;;;;1.03;1.00;;;37.80;66.00;;;;;;4957910;29;20425;-65
2023/09/10 11:05:57;;;;;;;0.67;0.67;;;37.80;63.40;;;;;;4957446;29;20432;-64
2023/09/10 11:08:28;;;;;;;1.93;1.20;;;37.30;64.30;;;;;;4957985;29;20512;-63
2023/09/10 11:10:54;;;;;;;0.67;0.67;;;36.60;64.10;;;;;;4957940;29;20413;-64
2023/09/10 11:13:20;;;;;;;1.17;1.17;;;35.60;66.20;;;;;;4957833;29;20384;-64
2023/09/10 11:16:03;;;;;;;1.67;1.27;;;34.80;66.60;;;;;;4956501;29;20433;-65
2023/09/10 11:18:39;;;;;;;0.80;0.80;;;33.90;68.30;;;;;;4957765;29;20181;-66
2023/09/10 11:21:09;;;;;;;1.27;0.90;;;33.10;70.20;;;;;;4940581;29;21016;-68
2023/09/10 11:23:36;;;;;;;0.50;0.50;;;32.60;73.30;;;;;;4940257;29;20763;-66
2023/09/10 11:26:14;;;;;;;0.43;0.40;;;32.10;74.90;;;;;;4957353;29;20407;-70
2023/09/10 11:28:49;;;;;;;0.80;0.80;;;31.60;76.90;;;;;;4957781;29;20390;-68
2023/09/10 11:31:33;;;;;;;0.70;0.70;;;31.20;77.70;;;;;;4957390;29;20469;-68
2023/09/10 11:34:27;;;;;;;0.67;0.67;;;30.90;79.50;;;;;;4957242;29;20416;-69
2023/09/10 11:37:00;;;;;;;0.60;0.60;;;30.60;81.40;;;;;;4919254;29;20403;-66
2023/09/10 11:39:26;;;;;;;0.40;0.40;;;30.40;82.30;;;;;;4957333;29;20423;-69
2023/09/10 11:41:54;;;;;;;0.93;0.73;;;30.20;83.50;;;;;;4940128;29;20991;-67
2023/09/10 11:44:20;;;;;;;1.33;1.30;;;30.10;82.80;;;;;;4957071;29;20778;-68
2023/09/10 11:46:46;;;;;;;0.87;0.70;;;30.10;83.70;;;;;;4956684;28;20574;-69
2023/09/10 11:49:13;;;;;;;1.50;1.40;;;30.10;85.00;;;;;;4958570;28;20196;-66
2023/09/10 11:51:43;;;;;;;0.70;0.70;;;30.10;88.50;;;;;;4956268;28;20416;-67
2023/09/10 11:54:09;;;;;;;1.00;0.73;;;30.00;85.00;;;;;;4956236;29;20835;-66
2023/09/10 11:56:35;;;;;;;0.37;0.37;;;30.00;84.90;;;;;;4956122;28;20455;-67
2023/09/10 11:59:01;;;;;;;0.40;0.40;;;30.10;85.20;;;;;;4955967;28;20643;-66
2023/09/10 12:01:27;;;;;;;0.50;0.37;;;30.10;85.50;;;;;;4956459;29;20192;-69
2023/09/10 12:03:53;;;;;;;1.00;1.00;;;30.00;84.40;;;;;;4956565;29;20391;-66
2023/09/10 12:06:18;;;;;;;1.43;0.63;;;30.10;84.70;;;;;;4956893;28;20927;-68
2023/09/10 12:08:45;;;;;;;0.30;0.27;;;30.00;86.30;;;;;;4956623;29;20228;-69
2023/09/10 12:11:14;;;;;;;0.60;0.60;;;29.90;85.60;;;;;;4942717;29;20181;-68
2023/09/10 12:13:40;;;;;;;1.27;1.27;;;29.90;84.90;;;;;;4956566;28;20516;-66
2023/09/10 12:16:06;;;;;;;0.60;0.50;;;29.90;84.90;;;;;;4956756;29;20832;-65
2023/09/10 12:18:33;;;;;;;0.40;0.30;;;29.90;84.50;;;;;;4956426;29;20547;-65
2023/09/10 12:20:59;;;;;;;0.60;0.40;;;29.80;85.00;;;;;;4956438;29;20819;-67
2023/09/10 12:23:25;;;;;;;0.90;0.90;;;29.80;84.10;;;;;;4937384;29;20425;-69
2023/09/10 12:25:58;;;;;;;0.93;0.73;;;29.70;85.00;;;;;;4953037;29;20456;-66
2023/09/10 12:28:24;;;;;;;0.60;0.60;;;29.80;85.10;;;;;;4956710;29;20881;-69
2023/09/10 12:30:50;;;;;;;0.53;0.53;;;29.80;87.40;;;;;;4938842;29;20399;-66
2023/09/10 12:33:16;;;;;;;0.83;0.70;;;29.80;87.50;;;;;;4956529;29;20851;-69
2023/09/10 12:35:42;;;;;;;0.60;0.60;;;29.90;87.30;;;;;;4955944;29;20443;-66
2023/09/10 12:38:07;;;;;;;0.60;0.60;;;29.90;85.70;;;;;;4955922;29;20181;-70
2023/09/10 12:40:34;;;;;;;0.60;0.60;;;30.00;85.70;;;;;;4956078;29;20439;-65
2023/09/10 12:43:00;;;;;;;0.70;0.70;;;30.00;84.70;;;;;;4956306;29;20189;-66
2023/09/10 12:45:25;;;;;;;0.40;0.40;;;29.90;83.10;;;;;;4938571;29;20452;-66
2023/09/10 12:47:52;;;;;;;0.63;0.63;;;29.90;84.00;;;;;;4956340;29;20256;-66
2023/09/10 12:50:18;;;;;;;0.80;0.80;;;29.80;83.90;;;;;;4955995;28;20540;-70
2023/09/10 12:52:44;;;;;;;0.40;0.40;;;29.80;83.80;;;;;;4955823;29;20456;-68
2023/09/10 12:55:10;;;;;;;0.40;0.40;;;29.80;83.70;;;;;;4955508;29;20458;-68
2023/09/10 12:57:35;;;;;;;0.40;0.40;;;29.80;82.90;;;;;;4956090;28;20305;-64
2023/09/10 13:00:03;;;;;;;0.83;0.83;;;29.80;83.90;;;;;;4938807;29;20200;-70
2023/09/10 13:02:33;;;;;;;0.50;0.50;;;29.80;82.20;;;;;;4955184;28;20184;-65
2023/09/10 13:05:00;;;;;;;0.50;0.50;;;29.80;83.30;;;;;;4955417;28;20410;-68
2023/09/10 13:07:26;;;;;;;0.40;0.40;;;29.90;82.30;;;;;;4937961;29;20788;-68
2023/09/10 13:09:52;;;;;;;0.80;0.80;;;29.90;81.00;;;;;;4955678;29;20422;-69
2023/09/10 13:12:19;;;;;;;0.50;0.50;;;30.00;81.80;;;;;;4956031;29;20420;-68
2023/09/10 13:14:44;;;;;;;0.60;0.60;;;30.10;80.00;;;;;;4938039;29;20675;-68
2023/09/10 13:17:10;;;;;;;0.63;0.63;;;30.10;81.10;;;;;;4955860;29;20398;-68
2023/09/10 13:19:36;;;;;;;0.47;0.47;;;30.10;82.70;;;;;;4955507;29;20211;-65
2023/09/10 13:22:02;;;;;;;0.80;0.80;;;30.10;81.00;;;;;;4938122;29;20188;-69
2023/09/10 13:24:28;;;;;;;0.93;0.93;;;30.10;79.40;;;;;;4955113;29;20180;-65
2023/09/10 13:26:54;;;;;;;0.57;0.57;;;30.10;80.50;;;;;;4955520;29;20391;-65
2023/09/10 13:29:19;;;;;;;2.40;0.47;;;30.10;79.00;;;;;;4955094;29;20176;-67
2023/09/10 13:31:45;;;;;;;0.60;0.60;;;30.10;80.00;;;;;;4955746;29;20230;-69
2023/09/10 13:34:10;;;;;;;0.63;0.60;;;30.10;80.60;;;;;;4955079;29;20654;-66
2023/09/10 13:36:37;;;;;;;0.30;0.30;;;30.10;79.50;;;;;;4954915;29;20734;-68
2023/09/10 13:39:04;;;;;;;0.50;0.50;;;30.20;79.20;;;;;;4955382;29;20669;-66
2023/09/10 13:41:29;;;;;;;0.30;0.20;;;30.20;79.40;;;;;;4955441;29;20413;-69
2023/09/10 13:43:57;;;;;;;0.80;0.80;;;30.20;77.50;;;;;;4955116;29;20383;-66
2023/09/10 13:46:24;;;;;;;2.30;0.87;;;30.20;78.90;;;;;;4955380;29;20224;-69
2023/09/10 13:48:49;;;;;;;0.70;0.70;;;30.20;80.40;;;;;;4938312;29;20415;-64
2023/09/10 13:51:15;;;;;;;0.80;0.40;;;30.20;77.90;;;;;;4955104;29;20420;-68
2023/09/10 13:53:43;;;;;;;0.77;0.77;;;30.10;78.20;;;;;;4954863;29;20235;-64
2023/09/10 13:56:12;;;;;;;1.37;0.50;;;30.00;80.50;;;;;;4954982;29;20197;-67
2023/09/10 13:58:37;;;;;;;1.33;1.23;;;30.00;78.10;;;;;;4955352;29;20453;-68
2023/09/10 14:01:07;;;;;;;0.53;0.53;;;29.90;77.90;;;;;;4955275;29;20547;-68
2023/09/10 14:03:33;;;;;;;0.80;0.60;;;29.80;78.10;;;;;;4954925;29;20169;-67
2023/09/10 14:05:59;;;;;;;1.07;1.07;;;29.80;78.60;;;;;;4954353;28;20441;-68
2023/09/10 14:08:24;;;;;;;0.50;0.50;;;29.80;78.10;;;;;;4955303;29;20400;-66
2023/09/10 14:10:50;;;;;;;0.50;0.50;;;29.80;78.00;;;;;;4955283;29;20643;-68
2023/09/10 14:13:16;;;;;;;0.40;0.40;;;29.80;79.50;;;;;;4955521;28;20334;-66
2023/09/10 14:15:43;;;;;;;0.40;0.40;;;29.80;80.10;;;;;;4957698;28;20196;-66
2023/09/10 14:18:09;;;;;;;0.67;0.67;;;29.80;79.60;;;;;;4958921;29;20181;-69
2023/09/10 14:20:35;;;;;;;0.63;0.63;;;29.80;79.30;;;;;;4958289;29;20470;-66
2023/09/10 14:23:00;;;;;;;0.70;0.70;;;29.80;80.20;;;;;;4958921;29;20400;-68
2023/09/10 14:25:26;;;;;;;0.93;0.93;;;29.80;80.00;;;;;;4940810;29;20667;-65
2023/09/10 14:27:52;;;;;;;0.47;0.40;;;29.80;79.80;;;;;;4958903;29;20680;-67
2023/09/10 14:30:17;;;;;;;0.47;0.47;;;29.80;80.50;;;;;;4958787;29;20184;-68
2023/09/10 14:32:43;;;;;;;0.70;0.70;;;29.80;79.10;;;;;;4958430;29;20703;-66
2023/09/10 14:35:08;;;;;;;0.50;0.50;;;29.80;79.10;;;;;;4958439;29;20196;-66
2023/09/10 14:37:34;;;;;;;0.73;0.73;;;29.70;79.30;;;;;;4958713;29;20177;-64
2023/09/10 14:40:01;;;;;;;0.50;0.50;;;29.60;79.20;;;;;;4958468;29;20197;-69
2023/09/10 14:42:26;;;;;;;1.10;1.00;;;29.60;79.00;;;;;;4958341;28;20412;-68
2023/09/10 14:44:52;;;;;;;1.37;1.27;;;29.60;79.50;;;;;;4958077;29;20489;-67
2023/09/10 14:47:18;;;;;;;0.63;0.63;;;29.60;80.40;;;;;;4957751;29;20181;-64
2023/09/10 14:49:43;;;;;;;0.63;0.50;;;29.60;80.20;;;;;;4957925;29;20719;-70
2023/09/10 14:52:09;;;;;;;0.53;0.50;;;29.60;79.00;;;;;;4957680;29;20185;-66
2023/09/10 14:54:36;;;;;;;0.70;0.70;;;29.60;79.00;;;;;;4957705;29;20208;-68
2023/09/10 14:57:02;;;;;;;0.47;0.47;;;29.60;80.00;;;;;;4958971;29;20639;-68
2023/09/10 14:59:28;;;;;;;0.60;0.60;;;29.60;79.50;;;;;;4959031;29;20426;-69
2023/09/10 15:01:53;;;;;;;0.40;0.40;;;29.50;79.50;;;;;;4958419;29;20870;-67
2023/09/10 15:04:19;;;;;;;0.50;0.50;;;29.50;78.50;;;;;;4957366;29;20651;-67
2023/09/10 15:06:45;;;;;;;0.73;0.70;;;29.40;78.20;;;;;;4957323;29;20267;-69
2023/09/10 15:09:10;;;;;;;0.80;0.70;;;29.40;78.20;;;;;;4957706;28;20173;-66
2023/09/10 15:11:36;;;;;;;0.57;0.57;;;29.30;78.60;;;;;;4958131;29;20471;-71
2023/09/10 15:14:02;;;;;;;0.40;0.30;;;29.30;78.50;;;;;;4957918;29;20541;-66
2023/09/10 15:16:28;;;;;;;0.60;0.60;;;29.30;79.30;;;;;;4957906;29;20188;-68
2023/09/10 15:18:53;;;;;;;0.43;0.43;;;29.30;80.40;;;;;;4958031;29;20417;-66
2023/09/10 15:21:19;;;;;;;0.70;0.70;;;29.30;80.70;;;;;;4957660;29;20255;-69
2023/09/10 15:23:44;;;;;;;1.23;1.07;;;29.30;81.10;;;;;;4957472;29;20220;-67
2023/09/10 15:26:10;;;;;;;0.60;0.60;;;29.20;81.00;;;;;;4957129;28;20259;-69
2023/09/10 15:28:36;;;;;;;0.77;0.77;;;29.20;81.30;;;;;;4957851;29;20653;-68
2023/09/10 15:31:02;;;;;;;0.70;0.70;;;29.20;81.20;;;;;;4957663;28;20204;-67
2023/09/10 15:33:27;;;;;;;0.30;0.30;;;29.20;80.80;;;;;;4957597;29;20547;-67
2023/09/10 15:35:53;;;;;;;0.50;0.50;;;29.10;80.50;;;;;;4956542;29;20417;-66
2023/09/10 15:38:20;;;;;;;0.43;0.40;;;29.10;80.10;;;;;;4957180;29;20185;-66
2023/09/10 15:40:45;;;;;;;0.30;0.30;;;29.10;79.80;;;;;;4956925;29;20433;-66
2023/09/10 15:43:11;;;;;;;0.77;0.77;;;29.10;79.70;;;;;;4957373;28;20383;-68
2023/09/10 15:45:40;;;;;;;0.30;0.30;;;29.10;80.40;;;;;;4957010;29;20185;-66
2023/09/10 15:48:06;;;;;;;0.50;0.50;;;29.00;79.60;;;;;;4957383;29;20177;-69
2023/09/10 15:50:34;;;;;;;0.30;0.30;;;29.00;80.00;;;;;;4957031;29;20395;-66
2023/09/10 15:53:00;;;;;;;0.53;0.50;;;29.00;80.40;;;;;;4957213;29;20173;-69
2023/09/10 15:55:25;;;;;;;0.70;0.70;;;28.90;80.00;;;;;;4956505;29;20850;-69
2023/09/10 15:57:51;;;;;;;0.30;0.30;;;28.90;80.60;;;;;;4956797;29;20391;-66
2023/09/10 16:00:17;;;;;;;0.60;0.60;;;28.90;81.20;;;;;;4956736;29;20599;-66
2023/09/10 16:02:46;;;;;;;0.50;0.50;;;28.90;82.10;;;;;;4956850;29;20177;-69
2023/09/10 16:05:12;;;;;;;0.50;0.50;;;28.80;81.80;;;;;;4955810;29;20490;-66
2023/09/10 16:07:37;;;;;;;0.50;0.47;;;28.80;81.70;;;;;;4956586;28;20531;-66
2023/09/10 16:10:04;;;;;;;1.30;1.10;;;28.70;82.00;;;;;;4956758;28;20204;-69
2023/09/10 16:12:31;;;;;;;0.30;0.30;;;28.80;82.20;;;;;;4956870;29;20181;-67
2023/09/10 16:14:58;;;;;;;0.60;0.60;;;28.70;82.50;;;;;;4938745;29;20458;-64
2023/09/10 16:17:23;;;;;;;1.17;0.80;;;28.70;83.10;;;;;;4956468;29;20742;-67
2023/09/10 16:19:49;;;;;;;0.50;0.50;;;28.60;82.80;;;;;;4956297;28;20463;-70
2023/09/10 16:22:18;;;;;;;1.23;1.00;;;28.50;83.40;;;;;;4956270;28;20590;-66
2023/09/10 16:24:44;;;;;;;1.13;1.13;;;28.50;82.80;;;;;;4956127;29;20229;-68
2023/09/10 16:27:11;;;;;;;0.80;0.77;;;28.50;82.80;;;;;;4956312;29;20413;-66
2023/09/10 16:29:37;;;;;;;0.93;0.90;;;28.50;83.40;;;;;;4956507;28;20560;-70
2023/09/10 16:32:03;;;;;;;0.63;0.57;;;28.40;83.50;;;;;;4956459;29;20412;-68
2023/09/10 16:34:29;;;;;;;1.30;1.20;;;28.40;83.50;;;;;;4955154;29;20407;-64
2023/09/10 16:36:55;;;;;;;0.47;0.47;;;28.40;83.70;;;;;;4955310;28;20402;-67
2023/09/10 16:39:21;;;;;;;0.83;0.60;;;28.30;83.80;;;;;;4955736;29;20433;-68
2023/09/10 16:41:47;;;;;;;0.50;0.50;;;28.30;83.50;;;;;;4956006;28;20195;-66
2023/09/10 16:44:13;;;;;;;0.57;0.57;;;28.20;83.70;;;;;;4954267;29;20789;-67
2023/09/10 16:46:39;;;;;;;1.03;0.70;;;28.20;84.00;;;;;;4937031;29;20400;-64
2023/09/10 16:49:05;;;;;;;0.97;0.97;;;28.20;84.00;;;;;;4943850;29;20438;-67
2023/09/10 16:51:32;;;;;;;1.23;1.13;;;28.10;83.80;;;;;;4955871;28;20163;-62